createdAt,value
2023-03-26T00:00:44.487Z,993.2
2023-03-26T00:02:00.784Z,993
2023-03-26T00:03:17.068Z,993
2023-03-26T00:04:33.359Z,993
2023-03-26T00:05:48.686Z,993
2023-03-26T00:07:04.981Z,993.1
2023-03-26T00:08:21.268Z,993
2023-03-26T00:09:37.553Z,993.1
2023-03-26T00:10:53.856Z,993.1
2023-03-26T00:12:10.148Z,993.1
2023-03-26T00:13:26.446Z,993.1
2023-03-26T00:14:42.732Z,993.1
2023-03-26T00:15:59.019Z,993.1
2023-03-26T00:17:15.314Z,993.1
2023-03-26T00:18:31.607Z,993.1
2023-03-26T00:19:47.917Z,993.2
2023-03-26T00:21:04.206Z,993.1
2023-03-26T00:22:19.506Z,993.2
2023-03-26T00:23:35.803Z,993.1
2023-03-26T00:24:52.109Z,993.1
2023-03-26T00:26:08.396Z,993.1
2023-03-26T00:27:24.686Z,993
2023-03-26T00:28:40.993Z,993.1
2023-03-26T00:29:57.288Z,993.1
2023-03-26T00:31:13.571Z,993.1
2023-03-26T00:32:29.855Z,993.1
2023-03-26T00:33:46.151Z,993
2023-03-26T00:35:02.455Z,993
2023-03-26T00:36:18.750Z,993
2023-03-26T00:37:35.031Z,993.1
2023-03-26T00:38:50.355Z,993.1
2023-03-26T00:40:06.642Z,993.1
2023-03-26T00:41:22.932Z,993.1
2023-03-26T00:42:39.229Z,993.1
2023-03-26T00:43:55.537Z,993.1
2023-03-26T00:45:11.824Z,993.1
2023-03-26T00:46:28.113Z,993.1
2023-03-26T00:47:44.404Z,993.1
2023-03-26T00:49:00.704Z,993
2023-03-26T00:50:16.994Z,993.1
2023-03-26T00:51:33.287Z,993
2023-03-26T00:52:49.587Z,993
2023-03-26T00:54:05.869Z,993
2023-03-26T00:55:21.177Z,992.9
2023-03-26T00:56:37.491Z,992.9
2023-03-26T00:57:53.773Z,993
2023-03-26T00:59:10.061Z,993
2023-03-26T01:00:26.359Z,993
2023-03-26T01:01:42.643Z,993
2023-03-26T01:02:58.936Z,993
2023-03-26T01:04:15.227Z,993
2023-03-26T01:05:31.542Z,992.9
2023-03-26T01:06:47.815Z,992.9
2023-03-26T01:08:04.119Z,993
2023-03-26T01:09:20.403Z,992.9
2023-03-26T01:10:36.699Z,993
2023-03-26T01:11:52.018Z,992.9
2023-03-26T01:13:08.300Z,992.9
2023-03-26T01:14:24.599Z,993
2023-03-26T01:15:40.897Z,993
2023-03-26T01:16:57.188Z,993
2023-03-26T01:18:13.486Z,993
2023-03-26T01:19:29.783Z,993
2023-03-26T01:20:46.071Z,992.9
2023-03-26T01:22:02.367Z,993
2023-03-26T01:23:18.649Z,993
2023-03-26T01:24:34.953Z,993
2023-03-26T01:25:51.246Z,993
2023-03-26T01:27:07.531Z,993
2023-03-26T01:28:22.854Z,992.9
2023-03-26T01:29:39.143Z,992.9
2023-03-26T01:30:55.436Z,993
2023-03-26T01:32:11.737Z,993
2023-03-26T01:33:28.021Z,992.9
2023-03-26T01:34:44.318Z,992.9
2023-03-26T01:36:00.627Z,992.9
2023-03-26T01:37:16.901Z,992.9
2023-03-26T01:38:33.201Z,992.9
2023-03-26T01:39:49.495Z,992.9
2023-03-26T01:41:05.778Z,992.9
2023-03-26T01:42:22.087Z,992.9
2023-03-26T01:43:38.370Z,992.9
2023-03-26T01:44:53.682Z,992.9
2023-03-26T01:46:09.985Z,992.9
2023-03-26T01:47:26.274Z,993
2023-03-26T01:48:42.566Z,993
2023-03-26T01:49:58.848Z,993
2023-03-26T01:51:15.162Z,993
2023-03-26T01:52:31.439Z,992.9
2023-03-26T01:53:47.749Z,993
2023-03-26T01:55:04.030Z,992.9
2023-03-26T01:56:20.319Z,992.9
2023-03-26T01:57:36.625Z,993
2023-03-26T01:58:52.911Z,992.9
2023-03-26T02:00:09.197Z,992.9
2023-03-26T02:01:24.527Z,992.9
2023-03-26T02:02:40.820Z,992.9
2023-03-26T02:03:57.101Z,992.9
2023-03-26T02:05:13.401Z,992.9
2023-03-26T02:06:29.686Z,992.9
2023-03-26T02:07:45.980Z,992.9
2023-03-26T02:09:01.000Z,992.9
2023-03-26T02:10:17.605Z,992.9
2023-03-26T02:11:33.887Z,992.9
2023-03-26T02:12:50.191Z,992.9
2023-03-26T02:14:06.474Z,992.9
2023-03-26T02:15:22.765Z,992.8
2023-03-26T02:16:39.078Z,992.9
2023-03-26T02:17:55.361Z,992.8
2023-03-26T02:19:11.642Z,992.8
2023-03-26T02:20:27.944Z,992.8
2023-03-26T02:21:44.231Z,992.8
2023-03-26T02:23:00.539Z,992.8
2023-03-26T02:24:16.834Z,992.9
2023-03-26T02:25:32.135Z,992.9
2023-03-26T02:26:48.429Z,992.8
2023-03-26T02:28:04.718Z,992.8
2023-03-26T02:29:21.011Z,992.8
2023-03-26T02:30:37.312Z,992.8
2023-03-26T02:31:53.611Z,992.9
2023-03-26T02:33:09.901Z,992.9
2023-03-26T02:34:26.197Z,992.9
2023-03-26T02:35:42.480Z,992.8
2023-03-26T02:36:58.781Z,992.9
2023-03-26T02:38:15.076Z,992.8
2023-03-26T02:39:31.363Z,992.8
2023-03-26T02:40:47.667Z,992.9
2023-03-26T02:42:02.969Z,992.9
2023-03-26T02:43:19.261Z,992.9
2023-03-26T02:44:35.558Z,992.8
2023-03-26T02:45:51.858Z,992.9
2023-03-26T02:47:08.145Z,992.8
2023-03-26T02:48:24.435Z,992.8
2023-03-26T02:49:40.726Z,992.8
2023-03-26T02:50:57.031Z,992.8
2023-03-26T02:52:13.320Z,992.8
2023-03-26T02:53:29.619Z,992.7
2023-03-26T02:54:45.908Z,992.7
2023-03-26T02:56:02.198Z,992.7
2023-03-26T02:57:18.495Z,992.7
2023-03-26T02:58:33.808Z,992.7
2023-03-26T02:59:50.100Z,992.8
2023-03-26T03:01:06.389Z,992.7
2023-03-26T03:02:22.688Z,992.7
2023-03-26T03:03:38.983Z,992.7
2023-03-26T03:04:55.275Z,992.7
2023-03-26T03:06:11.569Z,992.8
2023-03-26T03:07:27.856Z,992.7
2023-03-26T03:08:44.139Z,992.7
2023-03-26T03:10:00.445Z,992.6
2023-03-26T03:11:16.741Z,992.6
2023-03-26T03:12:33.026Z,992.7
2023-03-26T03:13:49.325Z,992.7
2023-03-26T03:15:04.630Z,992.5
2023-03-26T03:16:20.943Z,992.6
2023-03-26T03:17:37.214Z,992.8
2023-03-26T03:18:53.520Z,992.7
2023-03-26T03:20:09.807Z,992.7
2023-03-26T03:21:26.106Z,992.7
2023-03-26T03:22:42.400Z,992.8
2023-03-26T03:23:58.688Z,992.7
2023-03-26T03:25:14.986Z,992.7
2023-03-26T03:26:31.268Z,992.7
2023-03-26T03:27:47.559Z,992.7
2023-03-26T03:29:03.853Z,992.7
2023-03-26T03:30:20.146Z,992.7
2023-03-26T03:31:35.467Z,992.7
2023-03-26T03:32:51.748Z,992.6
2023-03-26T03:34:08.055Z,992.6
2023-03-26T03:35:24.349Z,992.6
2023-03-26T03:36:40.636Z,992.6
2023-03-26T03:37:56.938Z,992.6
2023-03-26T03:39:13.232Z,992.5
2023-03-26T03:40:29.509Z,992.5
2023-03-26T03:41:45.828Z,992.5
2023-03-26T03:43:02.117Z,992.6
2023-03-26T03:44:18.404Z,992.5
2023-03-26T03:45:34.689Z,992.5
2023-03-26T03:46:50.983Z,992.5
2023-03-26T03:48:06.288Z,992.5
2023-03-26T03:49:22.581Z,992.5
2023-03-26T03:50:38.874Z,992.5
2023-03-26T03:51:55.190Z,992.5
2023-03-26T03:53:11.476Z,992.5
2023-03-26T03:54:27.771Z,992.5
2023-03-26T03:55:44.065Z,992.5
2023-03-26T03:57:00.342Z,992.5
2023-03-26T03:58:16.658Z,992.5
2023-03-26T03:59:32.931Z,992.5
2023-03-26T04:00:49.227Z,992.5
2023-03-26T04:02:05.522Z,992.5
2023-03-26T04:03:21.827Z,992.5
2023-03-26T04:04:37.152Z,992.5
2023-03-26T04:05:53.416Z,992.5
2023-03-26T04:07:09.718Z,992.5
2023-03-26T04:08:26.017Z,992.6
2023-03-26T04:09:42.297Z,992.5
2023-03-26T04:10:58.604Z,992.6
2023-03-26T04:12:14.888Z,992.5
2023-03-26T04:13:31.189Z,992.5
2023-03-26T04:14:47.479Z,992.5
2023-03-26T04:16:03.769Z,992.5
2023-03-26T04:17:20.061Z,992.6
2023-03-26T04:18:36.359Z,992.6
2023-03-26T04:19:52.654Z,992.6
2023-03-26T04:21:07.969Z,992.6
2023-03-26T04:22:24.259Z,992.6
2023-03-26T04:23:40.563Z,992.6
2023-03-26T04:24:56.843Z,992.6
2023-03-26T04:26:13.149Z,992.6
2023-03-26T04:27:29.448Z,992.6
2023-03-26T04:28:45.731Z,992.6
2023-03-26T04:30:02.010Z,992.6
2023-03-26T04:31:18.319Z,992.6
2023-03-26T04:32:34.557Z,992.6
2023-03-26T04:33:50.854Z,992.5
2023-03-26T04:35:07.154Z,992.6
2023-03-26T04:36:23.387Z,992.6
2023-03-26T04:37:38.717Z,992.6
2023-03-26T04:38:55.010Z,992.6
2023-03-26T04:40:11.282Z,992.5
2023-03-26T04:41:27.592Z,992.5
2023-03-26T04:42:43.883Z,992.5
2023-03-26T04:44:00.143Z,992.6
2023-03-26T04:45:16.360Z,992.6
2023-03-26T04:46:32.614Z,992.5
2023-03-26T04:47:48.862Z,992.5
2023-03-26T04:49:05.098Z,992.5
2023-03-26T04:50:21.337Z,992.5
2023-03-26T04:51:37.590Z,992.5
2023-03-26T04:52:53.804Z,992.5
2023-03-26T04:54:09.062Z,992.5
2023-03-26T04:55:25.299Z,992.6
2023-03-26T04:56:41.548Z,992.6
2023-03-26T04:57:57.790Z,992.5
2023-03-26T04:59:14.013Z,992.5
2023-03-26T05:00:30.275Z,992.5
2023-03-26T05:01:46.515Z,992.5
2023-03-26T05:03:02.740Z,992.6
2023-03-26T05:04:18.976Z,992.5
2023-03-26T05:05:35.221Z,992.6
2023-03-26T05:06:51.450Z,992.6
2023-03-26T05:08:07.700Z,992.6
2023-03-26T05:09:23.933Z,992.6
2023-03-26T05:10:39.184Z,992.5
2023-03-26T05:11:55.451Z,992.6
2023-03-26T05:13:11.676Z,992.5
2023-03-26T05:14:27.920Z,992.6
2023-03-26T05:15:44.157Z,992.5
2023-03-26T05:17:00.393Z,992.5
2023-03-26T05:18:16.632Z,992.6
2023-03-26T05:19:32.882Z,992.6
2023-03-26T05:20:49.138Z,992.5
2023-03-26T05:22:05.362Z,992.5
2023-03-26T05:23:21.613Z,992.6
2023-03-26T05:24:37.826Z,992.6
2023-03-26T05:25:54.068Z,992.6
2023-03-26T05:27:09.320Z,992.6
2023-03-26T05:28:25.585Z,992.6
2023-03-26T05:29:41.805Z,992.6
2023-03-26T05:30:58.044Z,992.7
2023-03-26T05:32:14.291Z,992.6
2023-03-26T05:33:30.538Z,992.6
2023-03-26T05:34:46.777Z,992.6
2023-03-26T05:36:03.024Z,992.6
2023-03-26T05:37:19.245Z,992.7
2023-03-26T05:38:35.486Z,992.7
2023-03-26T05:39:51.735Z,992.7
2023-03-26T05:41:07.962Z,992.7
2023-03-26T05:42:24.215Z,992.7
2023-03-26T05:43:39.467Z,992.6
2023-03-26T05:44:55.707Z,992.6
2023-03-26T05:46:11.941Z,992.7
2023-03-26T05:47:28.183Z,992.7
2023-03-26T05:48:44.439Z,992.7
2023-03-26T05:50:00.657Z,992.6
2023-03-26T05:51:16.895Z,992.6
2023-03-26T05:52:33.133Z,992.6
2023-03-26T05:53:49.382Z,992.6
2023-03-26T05:55:05.646Z,992.6
2023-03-26T05:56:21.866Z,992.6
2023-03-26T05:57:38.109Z,992.5
2023-03-26T05:58:54.351Z,992.6
2023-03-26T06:00:09.599Z,992.6
2023-03-26T06:01:25.837Z,992.6
2023-03-26T06:02:42.082Z,992.6
2023-03-26T06:03:58.324Z,992.5
2023-03-26T06:05:14.563Z,992.6
2023-03-26T06:06:30.804Z,992.5
2023-03-26T06:07:47.046Z,992.5
2023-03-26T06:09:03.299Z,992.5
2023-03-26T06:10:19.533Z,992.5
2023-03-26T06:11:35.768Z,992.5
2023-03-26T06:12:52.003Z,992.5
2023-03-26T06:14:08.230Z,992.5
2023-03-26T06:15:24.474Z,992.5
2023-03-26T06:16:39.729Z,992.5
2023-03-26T06:17:55.989Z,992.5
2023-03-26T06:19:12.227Z,992.4
2023-03-26T06:20:28.470Z,992.4
2023-03-26T06:21:44.703Z,992.5
2023-03-26T06:23:00.945Z,992.5
2023-03-26T06:24:16.201Z,992.5
2023-03-26T06:25:32.435Z,992.5
2023-03-26T06:26:48.682Z,992.5
2023-03-26T06:28:04.912Z,992.5
2023-03-26T06:29:21.146Z,992.5
2023-03-26T06:30:37.385Z,992.5
2023-03-26T06:31:53.645Z,992.5
2023-03-26T06:33:09.879Z,992.5
2023-03-26T06:34:26.120Z,992.5
2023-03-26T06:35:42.369Z,992.5
2023-03-26T06:36:58.584Z,992.5
2023-03-26T06:38:14.841Z,992.5
2023-03-26T06:39:31.073Z,992.5
2023-03-26T06:40:46.328Z,992.5
2023-03-26T06:42:02.568Z,992.4
2023-03-26T06:43:18.813Z,992.4
2023-03-26T06:44:35.046Z,992.4
2023-03-26T06:45:51.294Z,992.5
2023-03-26T06:47:07.522Z,992.5
2023-03-26T06:48:23.779Z,992.5
2023-03-26T06:49:39.999Z,992.5
2023-03-26T06:50:56.254Z,992.5
2023-03-26T06:52:12.484Z,992.4
2023-03-26T06:53:28.731Z,992.4
2023-03-26T06:54:44.981Z,992.5
2023-03-26T06:56:01.205Z,992.5
2023-03-26T06:57:16.459Z,992.4
2023-03-26T06:58:32.693Z,992.4
2023-03-26T06:59:48.939Z,992.4
2023-03-26T07:01:05.191Z,992.5
2023-03-26T07:02:21.431Z,992.5
2023-03-26T07:03:37.669Z,992.4
2023-03-26T07:04:53.909Z,992.4
2023-03-26T07:06:10.140Z,992.4
2023-03-26T07:07:26.373Z,992.5
2023-03-26T07:08:42.611Z,992.4
2023-03-26T07:09:58.859Z,992.4
2023-03-26T07:11:15.097Z,992.4
2023-03-26T07:12:31.354Z,992.3
2023-03-26T07:13:46.615Z,992.4
2023-03-26T07:15:02.831Z,992.3
2023-03-26T07:16:19.083Z,992.3
2023-03-26T07:17:35.315Z,992.3
2023-03-26T07:18:51.550Z,992.3
2023-03-26T07:20:07.801Z,992.3
2023-03-26T07:21:24.040Z,992.2
2023-03-26T07:22:40.261Z,992.2
2023-03-26T07:23:56.521Z,992.2
2023-03-26T07:25:12.774Z,992.2
2023-03-26T07:26:28.980Z,992.2
2023-03-26T07:27:45.224Z,992.2
2023-03-26T07:29:01.471Z,992.1
2023-03-26T07:30:16.715Z,992.1
2023-03-26T07:31:32.966Z,992.1
2023-03-26T07:32:49.219Z,992.1
2023-03-26T07:34:05.465Z,992.2
2023-03-26T07:35:21.674Z,992.1
2023-03-26T07:36:37.914Z,992.1
2023-03-26T07:37:54.156Z,992
2023-03-26T07:39:10.419Z,992
2023-03-26T07:40:26.656Z,992
2023-03-26T07:41:42.889Z,992
2023-03-26T07:42:59.112Z,992
2023-03-26T07:44:15.000Z,992
2023-03-26T07:45:31.616Z,992
2023-03-26T07:46:46.857Z,991.9
2023-03-26T07:48:03.110Z,991.9
2023-03-26T07:49:19.335Z,991.9
2023-03-26T07:50:35.591Z,992
2023-03-26T07:51:51.808Z,992
2023-03-26T07:53:08.051Z,991.9
2023-03-26T07:54:24.287Z,991.9
2023-03-26T07:55:40.545Z,991.9
2023-03-26T07:56:56.763Z,991.9
2023-03-26T07:58:13.021Z,991.8
2023-03-26T07:59:29.248Z,991.8
2023-03-26T08:00:45.492Z,991.8
2023-03-26T08:02:01.742Z,991.8
2023-03-26T08:03:16.981Z,991.8
2023-03-26T08:04:33.249Z,991.8
2023-03-26T08:05:49.459Z,991.8
2023-03-26T08:07:05.704Z,991.8
2023-03-26T08:08:21.961Z,991.8
2023-03-26T08:09:38.176Z,991.8
2023-03-26T08:10:54.424Z,991.8
2023-03-26T08:12:10.673Z,991.8
2023-03-26T08:13:26.921Z,991.7
2023-03-26T08:14:43.150Z,991.7
2023-03-26T08:15:59.393Z,991.7
2023-03-26T08:17:15.633Z,991.8
2023-03-26T08:18:31.860Z,991.8
2023-03-26T08:19:47.115Z,991.8
2023-03-26T08:21:03.385Z,991.7
2023-03-26T08:22:19.605Z,991.6
2023-03-26T08:23:35.862Z,991.6
2023-03-26T08:24:52.070Z,991.7
2023-03-26T08:26:08.342Z,991.6
2023-03-26T08:27:24.573Z,991.6
2023-03-26T08:28:40.815Z,991.7
2023-03-26T08:29:57.045Z,991.6
2023-03-26T08:31:13.289Z,991.6
2023-03-26T08:32:29.527Z,991.7
2023-03-26T08:33:45.753Z,991.6
2023-03-26T08:35:01.992Z,991.6
2023-03-26T08:36:17.269Z,991.6
2023-03-26T08:37:33.485Z,991.6
2023-03-26T08:38:49.722Z,991.6
2023-03-26T08:40:05.996Z,991.6
2023-03-26T08:41:22.202Z,991.6
2023-03-26T08:42:38.457Z,991.6
2023-03-26T08:43:54.688Z,991.6
2023-03-26T08:45:10.955Z,991.6
2023-03-26T08:46:27.190Z,991.6
2023-03-26T08:47:43.403Z,991.6
2023-03-26T08:48:59.649Z,991.5
2023-03-26T08:50:15.914Z,991.6
2023-03-26T08:51:32.132Z,991.5
2023-03-26T08:52:47.401Z,991.5
2023-03-26T08:54:03.626Z,991.5
2023-03-26T08:55:19.873Z,991.5
2023-03-26T08:56:36.120Z,991.5
2023-03-26T08:57:52.339Z,991.4
2023-03-26T08:59:08.584Z,991.5
2023-03-26T09:00:24.830Z,991.4
2023-03-26T09:01:41.078Z,991.4
2023-03-26T09:02:57.300Z,991.4
2023-03-26T09:04:13.535Z,991.4
2023-03-26T09:05:29.792Z,991.4
2023-03-26T09:06:46.032Z,991.4
2023-03-26T09:08:02.256Z,991.4
2023-03-26T09:09:17.518Z,991.3
2023-03-26T09:10:33.760Z,991.4
2023-03-26T09:11:50.002Z,991.4
2023-03-26T09:13:06.249Z,991.3
2023-03-26T09:14:22.488Z,991.2
2023-03-26T09:15:38.733Z,991.3
2023-03-26T09:16:54.970Z,991.4
2023-03-26T09:18:11.191Z,991.3
2023-03-26T09:19:27.455Z,991.3
2023-03-26T09:20:43.692Z,991.2
2023-03-26T09:21:59.927Z,991.2
2023-03-26T09:23:16.156Z,991.2
2023-03-26T09:24:32.416Z,991.2
2023-03-26T09:25:48.638Z,991.2
2023-03-26T09:27:03.891Z,991.2
2023-03-26T09:28:20.127Z,991.2
2023-03-26T09:29:36.000Z,991.2
2023-03-26T09:30:52.616Z,991.2
2023-03-26T09:32:08.848Z,991.2
2023-03-26T09:33:25.106Z,991.2
2023-03-26T09:34:41.348Z,991.2
2023-03-26T09:35:57.573Z,991.2
2023-03-26T09:37:13.814Z,991.1
2023-03-26T09:38:30.068Z,991.1
2023-03-26T09:39:46.311Z,991.1
2023-03-26T09:41:02.549Z,991.1
2023-03-26T09:42:18.777Z,991.1
2023-03-26T09:43:34.043Z,991.1
2023-03-26T09:44:50.277Z,991.1
2023-03-26T09:46:06.505Z,991.1
2023-03-26T09:47:22.756Z,991.1
2023-03-26T09:48:39.020Z,991.1
2023-03-26T09:49:55.231Z,991.1
2023-03-26T09:51:11.472Z,991.1
2023-03-26T09:52:27.711Z,991.1
2023-03-26T09:53:43.963Z,991.1
2023-03-26T09:55:00.203Z,991.1
2023-03-26T09:56:16.440Z,991.1
2023-03-26T09:57:32.694Z,991.1
2023-03-26T09:58:48.918Z,991.1
2023-03-26T10:00:04.159Z,991
2023-03-26T10:01:20.406Z,991
2023-03-26T10:02:36.658Z,991
2023-03-26T10:03:52.915Z,991
2023-03-26T10:05:09.128Z,990.9
2023-03-26T10:06:25.390Z,990.9
2023-03-26T10:07:41.599Z,990.9
2023-03-26T10:08:57.846Z,991
2023-03-26T10:10:14.115Z,990.9
2023-03-26T10:11:30.339Z,990.9
2023-03-26T10:12:46.573Z,990.8
2023-03-26T10:14:02.815Z,990.7
2023-03-26T10:15:19.047Z,990.7
2023-03-26T10:16:34.309Z,990.7
2023-03-26T10:17:50.562Z,990.7
2023-03-26T10:19:06.777Z,990.7
2023-03-26T10:20:23.041Z,990.7
2023-03-26T10:21:39.270Z,990.6
2023-03-26T10:22:55.517Z,990.6
2023-03-26T10:24:11.734Z,990.6
2023-03-26T10:25:28.007Z,990.6
2023-03-26T10:26:44.218Z,990.6
2023-03-26T10:28:00.461Z,990.6
2023-03-26T10:29:16.698Z,990.5
2023-03-26T10:30:32.969Z,990.5
2023-03-26T10:31:49.181Z,990.5
2023-03-26T10:33:04.448Z,990.5
2023-03-26T10:34:20.691Z,990.5
2023-03-26T10:35:36.911Z,990.4
2023-03-26T10:36:53.165Z,990.4
2023-03-26T10:38:09.419Z,990.4
2023-03-26T10:39:24.669Z,990.3
2023-03-26T10:40:40.914Z,990.3
2023-03-26T10:41:57.144Z,990.3
2023-03-26T10:43:13.371Z,990.3
2023-03-26T10:44:29.614Z,990.3
2023-03-26T10:45:45.864Z,990.3
2023-03-26T10:47:02.121Z,990.3
2023-03-26T10:48:18.355Z,990.3
2023-03-26T10:49:34.589Z,990.2
2023-03-26T10:50:50.809Z,990.2
2023-03-26T10:52:07.057Z,990.2
2023-03-26T10:53:23.289Z,990.3
2023-03-26T10:54:39.551Z,990.2
2023-03-26T10:55:54.816Z,990.2
2023-03-26T10:57:11.027Z,990.2
2023-03-26T10:58:27.289Z,990.2
2023-03-26T10:59:43.530Z,990.2
2023-03-26T11:00:59.771Z,990.2
2023-03-26T11:02:15.989Z,990.2
2023-03-26T11:03:32.242Z,990.2
2023-03-26T11:04:48.480Z,990.2
2023-03-26T11:06:04.729Z,990.2
2023-03-26T11:07:20.947Z,990.2
2023-03-26T11:08:37.195Z,990.2
2023-03-26T11:09:53.425Z,990.2
2023-03-26T11:11:09.686Z,990.3
2023-03-26T11:12:24.000Z,990.2
2023-03-26T11:13:41.158Z,990.2
2023-03-26T11:14:57.422Z,990.2
2023-03-26T11:16:13.668Z,990.2
2023-03-26T11:17:29.880Z,990.2
2023-03-26T11:18:46.142Z,990.2
2023-03-26T11:20:02.362Z,990.1
2023-03-26T11:21:18.619Z,990.1
2023-03-26T11:22:34.840Z,990.1
2023-03-26T11:23:51.101Z,990.1
2023-03-26T11:25:07.320Z,990.1
2023-03-26T11:26:23.576Z,990.1
2023-03-26T11:27:39.818Z,990.2
2023-03-26T11:28:55.073Z,990.1
2023-03-26T11:30:11.296Z,990.2
2023-03-26T11:31:27.562Z,990.2
2023-03-26T11:32:43.805Z,990.2
2023-03-26T11:34:00.019Z,990.1
2023-03-26T11:35:16.269Z,990.1
2023-03-26T11:36:32.507Z,990.1
2023-03-26T11:37:48.761Z,990
2023-03-26T11:39:04.975Z,990.1
2023-03-26T11:40:21.227Z,990
2023-03-26T11:41:37.470Z,990.1
2023-03-26T11:42:53.695Z,990
2023-03-26T11:44:09.927Z,990
2023-03-26T11:45:25.195Z,990
2023-03-26T11:46:41.434Z,990
2023-03-26T11:47:57.669Z,990
2023-03-26T11:49:13.904Z,990
2023-03-26T11:50:30.139Z,989.9
2023-03-26T11:51:46.383Z,989.9
2023-03-26T11:53:02.619Z,990
2023-03-26T11:54:18.860Z,989.9
2023-03-26T11:55:35.113Z,989.9
2023-03-26T11:56:51.338Z,989.9
2023-03-26T11:58:07.581Z,989.9
2023-03-26T11:59:23.837Z,989.9
2023-03-26T12:00:40.076Z,989.9
2023-03-26T12:01:55.312Z,989.9
2023-03-26T12:03:11.578Z,989.9
2023-03-26T12:04:27.821Z,989.9
2023-03-26T12:05:44.053Z,989.9
2023-03-26T12:07:00.290Z,989.9
2023-03-26T12:08:16.517Z,990
2023-03-26T12:09:32.753Z,990
2023-03-26T12:10:49.021Z,990
2023-03-26T12:12:05.263Z,989.9
2023-03-26T12:13:21.478Z,989.8
2023-03-26T12:14:37.734Z,989.8
2023-03-26T12:15:53.950Z,989.8
2023-03-26T12:17:10.202Z,989.8
2023-03-26T12:18:25.458Z,989.7
2023-03-26T12:19:41.705Z,989.7
2023-03-26T12:20:57.942Z,989.7
2023-03-26T12:22:14.187Z,989.7
2023-03-26T12:23:30.436Z,989.6
2023-03-26T12:24:46.650Z,989.6
2023-03-26T12:26:02.901Z,989.6
2023-03-26T12:27:19.148Z,989.6
2023-03-26T12:28:35.362Z,989.6
2023-03-26T12:29:51.605Z,989.6
2023-03-26T12:31:07.838Z,989.5
2023-03-26T12:32:24.083Z,989.5
2023-03-26T12:33:40.332Z,989.5
2023-03-26T12:34:55.605Z,989.5
2023-03-26T12:36:11.832Z,989.5
2023-03-26T12:37:28.069Z,989.6
2023-03-26T12:38:44.323Z,989.5
2023-03-26T12:40:00.539Z,989.5
2023-03-26T12:41:16.778Z,989.6
2023-03-26T12:42:33.016Z,989.6
2023-03-26T12:43:49.254Z,989.5
2023-03-26T12:45:05.520Z,989.6
2023-03-26T12:46:21.735Z,989.6
2023-03-26T12:47:37.981Z,989.5
2023-03-26T12:48:54.222Z,989.6
2023-03-26T12:50:10.491Z,989.5
2023-03-26T12:51:25.713Z,989.6
2023-03-26T12:52:41.946Z,989.6
2023-03-26T12:53:58.195Z,989.6
2023-03-26T12:55:14.437Z,989.6
2023-03-26T12:56:30.681Z,989.6
2023-03-26T12:57:46.909Z,989.6
2023-03-26T12:59:03.175Z,989.6
2023-03-26T13:00:19.391Z,989.6
2023-03-26T13:01:35.634Z,989.7
2023-03-26T13:02:51.890Z,989.9
2023-03-26T13:04:08.130Z,989.9
2023-03-26T13:05:24.354Z,989.8
2023-03-26T13:06:40.602Z,989.9
2023-03-26T13:07:55.873Z,989.9
2023-03-26T13:09:12.099Z,989.8
2023-03-26T13:10:28.353Z,989.8
2023-03-26T13:11:44.580Z,989.9
2023-03-26T13:13:00.821Z,989.9
2023-03-26T13:14:17.046Z,989.8
2023-03-26T13:15:33.318Z,989.8
2023-03-26T13:16:49.528Z,989.7
2023-03-26T13:18:05.777Z,989.7
2023-03-26T13:19:22.011Z,989.7
2023-03-26T13:20:38.248Z,989.7
2023-03-26T13:21:54.501Z,989.7
2023-03-26T13:23:10.750Z,989.7
2023-03-26T13:24:26.005Z,989.7
2023-03-26T13:25:42.250Z,989.6
2023-03-26T13:26:58.469Z,989.7
2023-03-26T13:28:14.714Z,989.6
2023-03-26T13:29:30.963Z,989.6
2023-03-26T13:30:47.189Z,989.6
2023-03-26T13:32:03.457Z,989.6
2023-03-26T13:33:19.667Z,989.5
2023-03-26T13:34:35.919Z,989.6
2023-03-26T13:35:52.151Z,989.5
2023-03-26T13:37:08.396Z,989.5
2023-03-26T13:38:24.626Z,989.5
2023-03-26T13:39:40.862Z,989.5
2023-03-26T13:40:56.135Z,989.6
2023-03-26T13:42:12.360Z,989.5
2023-03-26T13:43:28.617Z,989.6
2023-03-26T13:44:44.861Z,989.5
2023-03-26T13:46:01.103Z,989.6
2023-03-26T13:47:17.318Z,989.6
2023-03-26T13:48:33.590Z,989.6
2023-03-26T13:49:49.819Z,989.6
2023-03-26T13:51:06.076Z,989.6
2023-03-26T13:52:22.278Z,989.6
2023-03-26T13:53:38.549Z,989.5
2023-03-26T13:54:54.796Z,989.6
2023-03-26T13:56:11.002Z,989.5
2023-03-26T13:57:26.266Z,989.5
2023-03-26T13:58:42.507Z,989.5
2023-03-26T13:59:58.744Z,989.5
2023-03-26T14:01:14.978Z,989.5
2023-03-26T14:02:31.233Z,989.5
2023-03-26T14:03:47.463Z,989.5
2023-03-26T14:05:03.709Z,989.5
2023-03-26T14:06:19.968Z,989.5
2023-03-26T14:07:36.186Z,989.5
2023-03-26T14:08:52.421Z,989.5
2023-03-26T14:10:08.672Z,989.5
2023-03-26T14:11:24.901Z,989.5
2023-03-26T14:12:41.144Z,989.5
2023-03-26T14:13:56.401Z,989.5
2023-03-26T14:15:12.637Z,989.5
2023-03-26T14:16:28.900Z,989.5
2023-03-26T14:17:45.121Z,989.5
2023-03-26T14:19:01.362Z,989.5
2023-03-26T14:20:17.609Z,989.5
2023-03-26T14:21:33.833Z,989.5
2023-03-26T14:22:50.094Z,989.6
2023-03-26T14:24:06.321Z,989.5
2023-03-26T14:25:22.551Z,989.5
2023-03-26T14:26:38.806Z,989.5
2023-03-26T14:27:55.030Z,989.5
2023-03-26T14:29:11.269Z,989.6
2023-03-26T14:30:26.533Z,989.5
2023-03-26T14:31:42.780Z,989.5
2023-03-26T14:32:59.007Z,989.5
2023-03-26T14:34:15.261Z,989.4
2023-03-26T14:35:31.503Z,989.5
2023-03-26T14:36:47.731Z,989.4
2023-03-26T14:38:03.993Z,989.4
2023-03-26T14:39:20.207Z,989.4
2023-03-26T14:40:36.447Z,989.4
2023-03-26T14:41:52.691Z,989.4
2023-03-26T14:43:08.947Z,989.4
2023-03-26T14:44:25.180Z,989.4
2023-03-26T14:45:41.424Z,989.4
2023-03-26T14:46:56.683Z,989.3
2023-03-26T14:48:12.945Z,989.3
2023-03-26T14:49:29.170Z,989.3
2023-03-26T14:50:45.393Z,989.3
2023-03-26T14:52:01.638Z,989.4
2023-03-26T14:53:17.876Z,989.3
2023-03-26T14:54:33.136Z,989.3
2023-03-26T14:55:49.381Z,989.4
2023-03-26T14:57:05.620Z,989.3
2023-03-26T14:58:21.853Z,989.3
2023-03-26T14:59:38.115Z,989.3
2023-03-26T15:00:54.328Z,989.3
2023-03-26T15:02:10.565Z,989.3
2023-03-26T15:03:26.838Z,989.3
2023-03-26T15:04:43.046Z,989.4
2023-03-26T15:05:59.314Z,989.3
2023-03-26T15:07:15.528Z,989.3
2023-03-26T15:08:31.779Z,989.4
2023-03-26T15:09:48.032Z,989.3
2023-03-26T15:11:03.295Z,989.3
2023-03-26T15:12:19.499Z,989.3
2023-03-26T15:13:35.767Z,989.3
2023-03-26T15:14:51.983Z,989.3
2023-03-26T15:16:08.219Z,989.3
2023-03-26T15:17:24.498Z,989.2
2023-03-26T15:18:40.705Z,989.2
2023-03-26T15:19:56.938Z,989.3
2023-03-26T15:21:13.195Z,989.3
2023-03-26T15:22:29.456Z,989.3
2023-03-26T15:23:45.687Z,989.3
2023-03-26T15:25:01.900Z,989.3
2023-03-26T15:26:18.165Z,989.3
2023-03-26T15:27:33.409Z,989.3
2023-03-26T15:28:49.681Z,989.3
2023-03-26T15:30:05.906Z,989.3
2023-03-26T15:31:22.133Z,989.3
2023-03-26T15:32:38.360Z,989.3
2023-03-26T15:33:54.611Z,989.3
2023-03-26T15:35:10.866Z,989.3
2023-03-26T15:36:27.088Z,989.3
2023-03-26T15:37:43.320Z,989.3
2023-03-26T15:38:59.587Z,989.3
2023-03-26T15:40:15.832Z,989.3
2023-03-26T15:41:32.072Z,989.3
2023-03-26T15:42:48.326Z,989.3
2023-03-26T15:44:03.558Z,989.3
2023-03-26T15:45:19.789Z,989.3
2023-03-26T15:46:36.061Z,989.3
2023-03-26T15:47:52.295Z,989.3
2023-03-26T15:49:08.508Z,989.3
2023-03-26T15:50:24.780Z,989.3
2023-03-26T15:51:41.017Z,989.4
2023-03-26T15:52:57.223Z,989.3
2023-03-26T15:54:13.486Z,989.3
2023-03-26T15:55:29.727Z,989.3
2023-03-26T15:56:45.946Z,989.3
2023-03-26T15:58:02.192Z,989.3
2023-03-26T15:59:18.419Z,989.3
2023-03-26T16:00:33.705Z,989.3
2023-03-26T16:01:49.920Z,989.3
2023-03-26T16:03:06.190Z,989.3
2023-03-26T16:04:22.424Z,989.3
2023-03-26T16:05:38.654Z,989.3
2023-03-26T16:06:54.876Z,989.3
2023-03-26T16:08:11.118Z,989.3
2023-03-26T16:09:27.356Z,989.2
2023-03-26T16:10:43.624Z,989.3
2023-03-26T16:11:59.877Z,989.3
2023-03-26T16:13:16.088Z,989.3
2023-03-26T16:14:32.325Z,989.3
2023-03-26T16:15:48.560Z,989.3
2023-03-26T16:17:03.849Z,989.3
2023-03-26T16:18:20.086Z,989.2
2023-03-26T16:19:36.325Z,989.2
2023-03-26T16:20:52.575Z,989.3
2023-03-26T16:22:08.790Z,989.3
2023-03-26T16:23:25.030Z,989.2
2023-03-26T16:24:41.287Z,989.2
2023-03-26T16:25:57.496Z,989.2